sensor_id;sensor_type;location;lat;lon;timestamp;P1;durP1;ratioP1;P2;durP2;ratioP2
55312;SDS011;46892;45.668;11.756;2023-07-22T00:02:05;4.60;;;1.83;;
55312;SDS011;46892;45.668;11.756;2023-07-22T00:04:31;4.20;;;2.10;;
55312;SDS011;46892;45.668;11.756;2023-07-22T00:06:57;5.03;;;2.37;;
55312;SDS011;46892;45.668;11.756;2023-07-22T00:09:23;4.53;;;2.30;;
55312;SDS011;46892;45.668;11.756;2023-07-22T00:11:49;3.40;;;2.10;;
55312;SDS011;46892;45.668;11.756;2023-07-22T00:14:15;4.00;;;1.90;;
55312;SDS011;46892;45.668;11.756;2023-07-22T00:16:41;4.63;;;2.20;;
55312;SDS011;46892;45.668;11.756;2023-07-22T00:19:07;3.53;;;2.07;;
55312;SDS011;46892;45.668;11.756;2023-07-22T00:21:33;3.47;;;2.13;;
55312;SDS011;46892;45.668;11.756;2023-07-22T00:23:59;3.20;;;2.10;;
55312;SDS011;46892;45.668;11.756;2023-07-22T00:26:25;3.67;;;2.20;;
55312;SDS011;46892;45.668;11.756;2023-07-22T00:28:52;3.40;;;2.10;;
55312;SDS011;46892;45.668;11.756;2023-07-22T00:31:18;6.13;;;2.80;;
55312;SDS011;46892;45.668;11.756;2023-07-22T00:33:44;5.63;;;2.63;;
55312;SDS011;46892;45.668;11.756;2023-07-22T00:36:09;5.63;;;2.47;;
55312;SDS011;46892;45.668;11.756;2023-07-22T00:38:35;4.07;;;2.40;;
55312;SDS011;46892;45.668;11.756;2023-07-22T00:41:01;7.47;;;2.40;;
55312;SDS011;46892;45.668;11.756;2023-07-22T00:43:29;3.97;;;2.33;;
55312;SDS011;46892;45.668;11.756;2023-07-22T00:45:55;8.77;;;3.47;;
55312;SDS011;46892;45.668;11.756;2023-07-22T00:48:21;3.83;;;2.50;;
55312;SDS011;46892;45.668;11.756;2023-07-22T00:50:48;4.70;;;2.90;;
55312;SDS011;46892;45.668;11.756;2023-07-22T00:53:14;4.47;;;2.33;;
55312;SDS011;46892;45.668;11.756;2023-07-22T00:55:40;6.60;;;2.90;;
55312;SDS011;46892;45.668;11.756;2023-07-22T00:58:06;4.93;;;2.63;;
55312;SDS011;46892;45.668;11.756;2023-07-22T01:00:32;6.17;;;2.80;;
55312;SDS011;46892;45.668;11.756;2023-07-22T01:02:58;5.03;;;3.00;;
55312;SDS011;46892;45.668;11.756;2023-07-22T01:05:25;6.47;;;2.87;;
55312;SDS011;46892;45.668;11.756;2023-07-22T01:07:52;6.10;;;2.50;;
55312;SDS011;46892;45.668;11.756;2023-07-22T01:10:18;4.73;;;2.40;;
55312;SDS011;46892;45.668;11.756;2023-07-22T01:12:45;7.73;;;3.17;;
55312;SDS011;46892;45.668;11.756;2023-07-22T01:15:10;7.70;;;3.23;;
55312;SDS011;46892;45.668;11.756;2023-07-22T01:17:38;7.20;;;3.63;;
55312;SDS011;46892;45.668;11.756;2023-07-22T01:20:05;6.33;;;2.40;;
55312;SDS011;46892;45.668;11.756;2023-07-22T01:22:34;6.17;;;2.70;;
55312;SDS011;46892;45.668;11.756;2023-07-22T01:25:01;3.58;;;1.98;;
55312;SDS011;46892;45.668;11.756;2023-07-22T01:27:28;4.10;;;2.00;;
55312;SDS011;46892;45.668;11.756;2023-07-22T01:29:54;3.90;;;1.90;;
55312;SDS011;46892;45.668;11.756;2023-07-22T01:32:20;4.63;;;2.13;;
55312;SDS011;46892;45.668;11.756;2023-07-22T01:34:46;3.30;;;1.77;;
55312;SDS011;46892;45.668;11.756;2023-07-22T01:37:11;3.27;;;1.70;;
55312;SDS011;46892;45.668;11.756;2023-07-22T01:39:37;3.20;;;1.80;;
55312;SDS011;46892;45.668;11.756;2023-07-22T01:42:03;4.93;;;2.00;;
55312;SDS011;46892;45.668;11.756;2023-07-22T01:44:29;4.60;;;2.00;;
55312;SDS011;46892;45.668;11.756;2023-07-22T01:46:55;4.20;;;1.90;;
55312;SDS011;46892;45.668;11.756;2023-07-22T01:49:22;5.50;;;2.27;;
55312;SDS011;46892;45.668;11.756;2023-07-22T01:51:49;5.77;;;1.90;;
55312;SDS011;46892;45.668;11.756;2023-07-22T01:54:15;4.10;;;2.13;;
55312;SDS011;46892;45.668;11.756;2023-07-22T01:56:41;3.93;;;2.20;;
55312;SDS011;46892;45.668;11.756;2023-07-22T01:59:07;5.47;;;2.07;;
55312;SDS011;46892;45.668;11.756;2023-07-22T02:01:33;7.03;;;2.43;;
55312;SDS011;46892;45.668;11.756;2023-07-22T02:03:59;3.10;;;2.10;;
55312;SDS011;46892;45.668;11.756;2023-07-22T02:06:25;5.87;;;2.30;;
55312;SDS011;46892;45.668;11.756;2023-07-22T02:08:52;6.47;;;2.63;;
55312;SDS011;46892;45.668;11.756;2023-07-22T02:11:18;4.77;;;2.60;;
55312;SDS011;46892;45.668;11.756;2023-07-22T02:13:44;5.60;;;2.60;;
55312;SDS011;46892;45.668;11.756;2023-07-22T02:16:09;5.10;;;2.50;;
55312;SDS011;46892;45.668;11.756;2023-07-22T02:18:36;3.53;;;2.23;;
55312;SDS011;46892;45.668;11.756;2023-07-22T02:21:03;4.97;;;2.33;;
55312;SDS011;46892;45.668;11.756;2023-07-22T02:23:28;5.53;;;2.30;;
55312;SDS011;46892;45.668;11.756;2023-07-22T02:25:54;5.00;;;2.43;;
55312;SDS011;46892;45.668;11.756;2023-07-22T02:28:20;3.77;;;2.40;;
55312;SDS011;46892;45.668;11.756;2023-07-22T02:30:51;5.67;;;2.20;;
55312;SDS011;46892;45.668;11.756;2023-07-22T02:33:18;4.57;;;1.83;;
55312;SDS011;46892;45.668;11.756;2023-07-22T02:35:44;5.70;;;2.20;;
55312;SDS011;46892;45.668;11.756;2023-07-22T02:38:10;5.13;;;2.30;;
55312;SDS011;46892;45.668;11.756;2023-07-22T02:40:36;3.10;;;1.90;;
55312;SDS011;46892;45.668;11.756;2023-07-22T02:43:02;6.67;;;2.57;;
55312;SDS011;46892;45.668;11.756;2023-07-22T02:45:29;5.13;;;2.20;;
55312;SDS011;46892;45.668;11.756;2023-07-22T02:47:55;4.53;;;2.20;;
55312;SDS011;46892;45.668;11.756;2023-07-22T02:50:21;5.97;;;2.10;;
55312;SDS011;46892;45.668;11.756;2023-07-22T02:52:46;3.27;;;2.00;;
55312;SDS011;46892;45.668;11.756;2023-07-22T02:55:16;3.73;;;2.00;;
55312;SDS011;46892;45.668;11.756;2023-07-22T02:57:46;4.07;;;1.93;;
55312;SDS011;46892;45.668;11.756;2023-07-22T03:00:14;4.77;;;2.30;;
55312;SDS011;46892;45.668;11.756;2023-07-22T03:02:58;5.47;;;2.40;;
55312;SDS011;46892;45.668;11.756;2023-07-22T03:05:27;4.20;;;1.90;;
55312;SDS011;46892;45.668;11.756;2023-07-22T03:07:54;5.10;;;1.83;;
55312;SDS011;46892;45.668;11.756;2023-07-22T03:10:20;5.30;;;2.10;;
55312;SDS011;46892;45.668;11.756;2023-07-22T03:12:46;4.00;;;2.13;;
55312;SDS011;46892;45.668;11.756;2023-07-22T03:15:12;6.50;;;2.37;;
55312;SDS011;46892;45.668;11.756;2023-07-22T03:17:39;6.67;;;2.20;;
55312;SDS011;46892;45.668;11.756;2023-07-22T03:20:07;11.87;;;2.83;;
55312;SDS011;46892;45.668;11.756;2023-07-22T03:22:40;6.47;;;2.03;;
55312;SDS011;46892;45.668;11.756;2023-07-22T03:25:09;5.43;;;2.10;;
55312;SDS011;46892;45.668;11.756;2023-07-22T03:27:36;3.67;;;2.10;;
55312;SDS011;46892;45.668;11.756;2023-07-22T03:30:03;6.13;;;2.40;;
55312;SDS011;46892;45.668;11.756;2023-07-22T03:32:32;7.22;;;2.63;;
55312;SDS011;46892;45.668;11.756;2023-07-22T03:34:59;7.30;;;2.97;;
55312;SDS011;46892;45.668;11.756;2023-07-22T03:37:24;6.97;;;2.60;;
55312;SDS011;46892;45.668;11.756;2023-07-22T03:39:50;4.13;;;2.03;;
55312;SDS011;46892;45.668;11.756;2023-07-22T03:42:16;3.90;;;2.00;;
55312;SDS011;46892;45.668;11.756;2023-07-22T03:44:42;3.23;;;1.53;;
55312;SDS011;46892;45.668;11.756;2023-07-22T03:47:07;3.73;;;2.17;;
55312;SDS011;46892;45.668;11.756;2023-07-22T03:49:33;3.47;;;2.00;;
55312;SDS011;46892;45.668;11.756;2023-07-22T03:51:59;3.07;;;1.80;;
55312;SDS011;46892;45.668;11.756;2023-07-22T03:54:25;6.57;;;2.17;;
55312;SDS011;46892;45.668;11.756;2023-07-22T03:56:50;7.20;;;1.73;;
55312;SDS011;46892;45.668;11.756;2023-07-22T03:59:16;3.53;;;1.80;;
55312;SDS011;46892;45.668;11.756;2023-07-22T04:01:42;3.57;;;2.00;;
55312;SDS011;46892;45.668;11.756;2023-07-22T04:04:08;5.27;;;2.70;;
55312;SDS011;46892;45.668;11.756;2023-07-22T04:06:34;5.87;;;2.67;;
55312;SDS011;46892;45.668;11.756;2023-07-22T04:08:59;5.07;;;2.27;;
55312;SDS011;46892;45.668;11.756;2023-07-22T04:11:26;5.10;;;2.13;;
55312;SDS011;46892;45.668;11.756;2023-07-22T04:13:52;3.40;;;1.77;;
55312;SDS011;46892;45.668;11.756;2023-07-22T04:16:18;4.47;;;2.00;;
55312;SDS011;46892;45.668;11.756;2023-07-22T04:18:44;7.07;;;1.90;;
55312;SDS011;46892;45.668;11.756;2023-07-22T04:21:10;6.87;;;2.67;;
55312;SDS011;46892;45.668;11.756;2023-07-22T04:23:35;9.60;;;2.47;;
55312;SDS011;46892;45.668;11.756;2023-07-22T04:26:02;6.13;;;2.17;;
55312;SDS011;46892;45.668;11.756;2023-07-22T04:28:30;8.93;;;2.40;;
55312;SDS011;46892;45.668;11.756;2023-07-22T04:30:57;3.93;;;2.10;;
55312;SDS011;46892;45.668;11.756;2023-07-22T04:33:24;4.83;;;2.03;;
55312;SDS011;46892;45.668;11.756;2023-07-22T04:35:52;7.20;;;2.03;;
55312;SDS011;46892;45.668;11.756;2023-07-22T04:38:22;6.00;;;2.00;;
55312;SDS011;46892;45.668;11.756;2023-07-22T04:40:48;3.90;;;2.17;;
55312;SDS011;46892;45.668;11.756;2023-07-22T04:43:14;4.40;;;1.90;;
55312;SDS011;46892;45.668;11.756;2023-07-22T04:45:40;5.07;;;2.10;;
55312;SDS011;46892;45.668;11.756;2023-07-22T04:48:06;3.67;;;2.00;;
55312;SDS011;46892;45.668;11.756;2023-07-22T04:50:32;7.30;;;2.03;;
55312;SDS011;46892;45.668;11.756;2023-07-22T04:52:58;5.30;;;2.20;;
55312;SDS011;46892;45.668;11.756;2023-07-22T04:55:24;6.97;;;2.00;;
55312;SDS011;46892;45.668;11.756;2023-07-22T04:57:51;3.90;;;1.90;;
55312;SDS011;46892;45.668;11.756;2023-07-22T05:00:17;4.03;;;1.90;;
55312;SDS011;46892;45.668;11.756;2023-07-22T05:02:44;3.90;;;2.00;;
55312;SDS011;46892;45.668;11.756;2023-07-22T05:05:14;9.35;;;2.08;;
55312;SDS011;46892;45.668;11.756;2023-07-22T05:07:41;6.43;;;2.13;;
55312;SDS011;46892;45.668;11.756;2023-07-22T05:10:07;7.20;;;2.50;;
55312;SDS011;46892;45.668;11.756;2023-07-22T05:12:38;7.83;;;2.57;;
55312;SDS011;46892;45.668;11.756;2023-07-22T05:15:05;2.80;;;1.60;;
55312;SDS011;46892;45.668;11.756;2023-07-22T05:17:31;3.17;;;1.70;;
55312;SDS011;46892;45.668;11.756;2023-07-22T05:19:57;5.47;;;2.40;;
55312;SDS011;46892;45.668;11.756;2023-07-22T05:22:23;2.60;;;1.80;;
55312;SDS011;46892;45.668;11.756;2023-07-22T05:24:50;5.80;;;1.87;;
55312;SDS011;46892;45.668;11.756;2023-07-22T05:27:16;3.60;;;1.73;;
55312;SDS011;46892;45.668;11.756;2023-07-22T05:29:43;3.53;;;1.77;;
55312;SDS011;46892;45.668;11.756;2023-07-22T05:32:10;2.67;;;1.93;;
55312;SDS011;46892;45.668;11.756;2023-07-22T05:34:36;4.20;;;2.07;;
55312;SDS011;46892;45.668;11.756;2023-07-22T05:37:02;5.93;;;2.17;;
55312;SDS011;46892;45.668;11.756;2023-07-22T05:39:28;4.18;;;2.10;;
55312;SDS011;46892;45.668;11.756;2023-07-22T05:41:53;4.55;;;2.00;;
55312;SDS011;46892;45.668;11.756;2023-07-22T05:44:20;3.77;;;1.90;;
55312;SDS011;46892;45.668;11.756;2023-07-22T05:46:46;4.60;;;2.00;;
55312;SDS011;46892;45.668;11.756;2023-07-22T05:49:11;3.50;;;1.80;;
55312;SDS011;46892;45.668;11.756;2023-07-22T05:51:37;2.78;;;1.77;;
55312;SDS011;46892;45.668;11.756;2023-07-22T05:54:03;2.25;;;1.75;;
55312;SDS011;46892;45.668;11.756;2023-07-22T05:56:29;3.60;;;1.90;;
55312;SDS011;46892;45.668;11.756;2023-07-22T05:58:55;5.38;;;2.08;;
55312;SDS011;46892;45.668;11.756;2023-07-22T06:01:21;6.00;;;2.15;;
55312;SDS011;46892;45.668;11.756;2023-07-22T06:03:48;4.55;;;1.60;;
55312;SDS011;46892;45.668;11.756;2023-07-22T06:06:13;2.92;;;1.77;;
55312;SDS011;46892;45.668;11.756;2023-07-22T06:08:39;3.35;;;1.63;;
55312;SDS011;46892;45.668;11.756;2023-07-22T06:11:05;4.90;;;1.90;;
55312;SDS011;46892;45.668;11.756;2023-07-22T06:13:31;6.45;;;2.00;;
55312;SDS011;46892;45.668;11.756;2023-07-22T06:15:56;3.35;;;1.42;;
55312;SDS011;46892;45.668;11.756;2023-07-22T06:18:22;3.17;;;1.52;;
55312;SDS011;46892;45.668;11.756;2023-07-22T06:20:48;4.13;;;1.67;;
55312;SDS011;46892;45.668;11.756;2023-07-22T06:23:15;5.07;;;1.98;;
55312;SDS011;46892;45.668;11.756;2023-07-22T06:25:41;3.63;;;1.60;;
55312;SDS011;46892;45.668;11.756;2023-07-22T06:28:06;8.63;;;2.10;;
55312;SDS011;46892;45.668;11.756;2023-07-22T06:30:33;3.17;;;1.80;;
55312;SDS011;46892;45.668;11.756;2023-07-22T06:32:59;2.63;;;1.40;;
55312;SDS011;46892;45.668;11.756;2023-07-22T06:35:25;2.33;;;1.80;;
55312;SDS011;46892;45.668;11.756;2023-07-22T06:37:51;3.60;;;1.77;;
55312;SDS011;46892;45.668;11.756;2023-07-22T06:40:17;3.42;;;1.65;;
55312;SDS011;46892;45.668;11.756;2023-07-22T06:42:43;3.13;;;1.80;;
55312;SDS011;46892;45.668;11.756;2023-07-22T06:45:09;4.03;;;1.45;;
55312;SDS011;46892;45.668;11.756;2023-07-22T06:47:35;4.20;;;1.63;;
55312;SDS011;46892;45.668;11.756;2023-07-22T06:50:02;5.00;;;1.85;;
55312;SDS011;46892;45.668;11.756;2023-07-22T06:52:29;3.88;;;1.75;;
55312;SDS011;46892;45.668;11.756;2023-07-22T06:54:56;3.40;;;1.70;;
55312;SDS011;46892;45.668;11.756;2023-07-22T06:57:22;2.88;;;1.75;;
55312;SDS011;46892;45.668;11.756;2023-07-22T06:59:47;2.75;;;1.60;;
55312;SDS011;46892;45.668;11.756;2023-07-22T07:02:16;4.18;;;1.90;;
55312;SDS011;46892;45.668;11.756;2023-07-22T07:04:41;6.10;;;1.60;;
55312;SDS011;46892;45.668;11.756;2023-07-22T07:07:07;3.05;;;1.70;;
55312;SDS011;46892;45.668;11.756;2023-07-22T07:09:34;3.50;;;1.80;;
55312;SDS011;46892;45.668;11.756;2023-07-22T07:12:00;3.55;;;2.20;;
55312;SDS011;46892;45.668;11.756;2023-07-22T07:14:26;2.95;;;1.83;;
55312;SDS011;46892;45.668;11.756;2023-07-22T07:16:52;2.25;;;1.50;;
55312;SDS011;46892;45.668;11.756;2023-07-22T07:19:18;3.13;;;1.83;;
55312;SDS011;46892;45.668;11.756;2023-07-22T07:21:44;2.88;;;1.52;;
55312;SDS011;46892;45.668;11.756;2023-07-22T07:24:09;2.58;;;1.45;;
55312;SDS011;46892;45.668;11.756;2023-07-22T07:26:35;2.47;;;1.60;;
55312;SDS011;46892;45.668;11.756;2023-07-22T07:29:01;2.40;;;1.60;;
55312;SDS011;46892;45.668;11.756;2023-07-22T07:31:27;2.63;;;1.42;;
55312;SDS011;46892;45.668;11.756;2023-07-22T07:33:52;3.95;;;2.33;;
55312;SDS011;46892;45.668;11.756;2023-07-22T07:36:18;2.88;;;1.65;;
55312;SDS011;46892;45.668;11.756;2023-07-22T07:38:44;3.00;;;1.77;;
55312;SDS011;46892;45.668;11.756;2023-07-22T07:41:10;3.00;;;1.65;;
55312;SDS011;46892;45.668;11.756;2023-07-22T07:43:40;3.58;;;1.50;;
55312;SDS011;46892;45.668;11.756;2023-07-22T07:48:48;2.58;;;1.50;;
55312;SDS011;46892;45.668;11.756;2023-07-22T07:51:14;2.85;;;1.50;;
55312;SDS011;46892;45.668;11.756;2023-07-22T07:53:41;3.80;;;1.75;;
55312;SDS011;46892;45.668;11.756;2023-07-22T07:56:09;2.97;;;1.75;;
55312;SDS011;46892;45.668;11.756;2023-07-22T07:58:35;2.60;;;1.83;;
55312;SDS011;46892;45.668;11.756;2023-07-22T08:01:02;2.45;;;1.80;;
55312;SDS011;46892;45.668;11.756;2023-07-22T08:03:28;2.85;;;1.50;;
55312;SDS011;46892;45.668;11.756;2023-07-22T08:05:53;2.95;;;1.50;;
55312;SDS011;46892;45.668;11.756;2023-07-22T08:08:20;2.78;;;1.65;;
55312;SDS011;46892;45.668;11.756;2023-07-22T08:10:46;2.97;;;1.55;;
55312;SDS011;46892;45.668;11.756;2023-07-22T08:13:13;3.60;;;1.70;;
55312;SDS011;46892;45.668;11.756;2023-07-22T08:15:39;4.22;;;1.52;;
55312;SDS011;46892;45.668;11.756;2023-07-22T08:18:07;2.38;;;1.50;;
55312;SDS011;46892;45.668;11.756;2023-07-22T08:20:32;4.10;;;1.85;;
55312;SDS011;46892;45.668;11.756;2023-07-22T08:22:58;3.15;;;1.52;;
55312;SDS011;46892;45.668;11.756;2023-07-22T08:25:24;3.58;;;1.50;;
55312;SDS011;46892;45.668;11.756;2023-07-22T08:27:50;2.88;;;1.65;;
55312;SDS011;46892;45.668;11.756;2023-07-22T08:30:15;2.47;;;1.50;;
55312;SDS011;46892;45.668;11.756;2023-07-22T08:32:41;5.75;;;1.55;;
55312;SDS011;46892;45.668;11.756;2023-07-22T08:35:07;2.95;;;1.40;;
55312;SDS011;46892;45.668;11.756;2023-07-22T08:37:33;3.08;;;1.60;;
55312;SDS011;46892;45.668;11.756;2023-07-22T08:39:59;3.50;;;1.73;;
55312;SDS011;46892;45.668;11.756;2023-07-22T08:42:24;4.78;;;1.60;;
55312;SDS011;46892;45.668;11.756;2023-07-22T08:44:56;2.60;;;1.60;;
55312;SDS011;46892;45.668;11.756;2023-07-22T08:47:24;2.70;;;1.60;;
55312;SDS011;46892;45.668;11.756;2023-07-22T08:52:22;1.88;;;1.30;;
55312;SDS011;46892;45.668;11.756;2023-07-22T08:54:49;4.45;;;1.50;;
55312;SDS011;46892;45.668;11.756;2023-07-22T08:57:15;3.60;;;1.42;;
55312;SDS011;46892;45.668;11.756;2023-07-22T08:59:42;2.72;;;1.45;;
55312;SDS011;46892;45.668;11.756;2023-07-22T09:02:12;3.10;;;1.38;;
55312;SDS011;46892;45.668;11.756;2023-07-22T09:04:39;2.38;;;1.30;;
55312;SDS011;46892;45.668;11.756;2023-07-22T09:07:09;2.08;;;1.40;;
55312;SDS011;46892;45.668;11.756;2023-07-22T09:09:36;3.58;;;1.40;;
55312;SDS011;46892;45.668;11.756;2023-07-22T09:12:03;4.28;;;1.40;;
55312;SDS011;46892;45.668;11.756;2023-07-22T09:14:31;1.55;;;1.25;;
55312;SDS011;46892;45.668;11.756;2023-07-22T09:16:58;1.88;;;1.38;;
55312;SDS011;46892;45.668;11.756;2023-07-22T09:19:24;2.55;;;1.42;;
55312;SDS011;46892;45.668;11.756;2023-07-22T09:21:50;4.28;;;1.40;;
55312;SDS011;46892;45.668;11.756;2023-07-22T09:24:23;2.20;;;1.35;;
55312;SDS011;46892;45.668;11.756;2023-07-22T09:26:50;3.13;;;1.60;;
55312;SDS011;46892;45.668;11.756;2023-07-22T09:29:17;3.40;;;1.50;;
55312;SDS011;46892;45.668;11.756;2023-07-22T09:31:54;3.35;;;1.50;;
55312;SDS011;46892;45.668;11.756;2023-07-22T09:34:20;3.53;;;1.25;;
55312;SDS011;46892;45.668;11.756;2023-07-22T09:36:54;2.38;;;1.50;;
55312;SDS011;46892;45.668;11.756;2023-07-22T09:39:21;3.55;;;1.40;;
55312;SDS011;46892;45.668;11.756;2023-07-22T09:41:47;2.80;;;1.50;;
55312;SDS011;46892;45.668;11.756;2023-07-22T09:44:14;1.70;;;1.25;;
55312;SDS011;46892;45.668;11.756;2023-07-22T09:46:40;3.75;;;1.70;;
55312;SDS011;46892;45.668;11.756;2023-07-22T09:49:07;2.95;;;1.63;;
55312;SDS011;46892;45.668;11.756;2023-07-22T09:51:34;3.70;;;1.73;;
55312;SDS011;46892;45.668;11.756;2023-07-22T09:54:02;2.67;;;1.60;;
55312;SDS011;46892;45.668;11.756;2023-07-22T09:56:29;2.35;;;1.50;;
55312;SDS011;46892;45.668;11.756;2023-07-22T09:58:56;2.35;;;1.40;;
55312;SDS011;46892;45.668;11.756;2023-07-22T10:01:24;2.38;;;1.40;;
55312;SDS011;46892;45.668;11.756;2023-07-22T10:03:52;6.40;;;1.88;;
55312;SDS011;46892;45.668;11.756;2023-07-22T10:06:20;2.95;;;1.60;;
55312;SDS011;46892;45.668;11.756;2023-07-22T10:08:56;2.55;;;1.52;;
55312;SDS011;46892;45.668;11.756;2023-07-22T10:11:27;2.78;;;1.48;;
55312;SDS011;46892;45.668;11.756;2023-07-22T10:13:53;2.70;;;1.58;;
55312;SDS011;46892;45.668;11.756;2023-07-22T10:16:20;6.18;;;2.10;;
55312;SDS011;46892;45.668;11.756;2023-07-22T10:18:48;2.83;;;1.30;;
55312;SDS011;46892;45.668;11.756;2023-07-22T10:21:14;3.25;;;1.80;;
55312;SDS011;46892;45.668;11.756;2023-07-22T10:23:40;5.32;;;2.08;;
55312;SDS011;46892;45.668;11.756;2023-07-22T10:26:06;3.65;;;1.92;;
55312;SDS011;46892;45.668;11.756;2023-07-22T10:28:35;5.45;;;2.20;;
55312;SDS011;46892;45.668;11.756;2023-07-22T10:31:02;5.90;;;2.05;;
55312;SDS011;46892;45.668;11.756;2023-07-22T10:33:28;3.17;;;1.52;;
55312;SDS011;46892;45.668;11.756;2023-07-22T10:36:04;2.35;;;1.55;;
55312;SDS011;46892;45.668;11.756;2023-07-22T10:38:37;2.45;;;1.70;;
55312;SDS011;46892;45.668;11.756;2023-07-22T10:41:14;6.50;;;1.80;;
55312;SDS011;46892;45.668;11.756;2023-07-22T10:46:30;4.40;;;1.55;;
55312;SDS011;46892;45.668;11.756;2023-07-22T10:51:40;6.88;;;2.30;;
55312;SDS011;46892;45.668;11.756;2023-07-22T10:54:13;6.93;;;2.28;;
55312;SDS011;46892;45.668;11.756;2023-07-22T10:56:45;5.00;;;2.30;;
55312;SDS011;46892;45.668;11.756;2023-07-22T10:59:11;4.30;;;2.20;;
55312;SDS011;46892;45.668;11.756;2023-07-22T11:01:43;5.35;;;2.42;;
55312;SDS011;46892;45.668;11.756;2023-07-22T11:06:39;4.47;;;1.98;;
55312;SDS011;46892;45.668;11.756;2023-07-22T11:11:52;4.35;;;2.17;;
55312;SDS011;46892;45.668;11.756;2023-07-22T11:14:23;4.78;;;2.15;;
55312;SDS011;46892;45.668;11.756;2023-07-22T11:16:51;4.57;;;2.40;;
55312;SDS011;46892;45.668;11.756;2023-07-22T11:19:18;4.70;;;1.87;;
55312;SDS011;46892;45.668;11.756;2023-07-22T11:21:49;4.60;;;2.53;;
55312;SDS011;46892;45.668;11.756;2023-07-22T11:24:16;3.73;;;1.97;;
55312;SDS011;46892;45.668;11.756;2023-07-22T11:26:42;10.30;;;2.22;;
55312;SDS011;46892;45.668;11.756;2023-07-22T11:29:10;5.10;;;2.20;;
55312;SDS011;46892;45.668;11.756;2023-07-22T11:31:40;5.97;;;2.10;;
55312;SDS011;46892;45.668;11.756;2023-07-22T11:36:40;5.07;;;2.10;;
55312;SDS011;46892;45.668;11.756;2023-07-22T11:39:07;3.53;;;2.10;;
55312;SDS011;46892;45.668;11.756;2023-07-22T11:41:35;3.07;;;1.73;;
55312;SDS011;46892;45.668;11.756;2023-07-22T11:44:03;4.40;;;2.07;;
55312;SDS011;46892;45.668;11.756;2023-07-22T11:46:48;2.73;;;1.67;;
55312;SDS011;46892;45.668;11.756;2023-07-22T11:51:57;4.03;;;2.22;;
55312;SDS011;46892;45.668;11.756;2023-07-22T11:54:28;3.22;;;1.83;;
55312;SDS011;46892;45.668;11.756;2023-07-22T11:56:54;2.90;;;1.80;;
55312;SDS011;46892;45.668;11.756;2023-07-22T11:59:42;2.88;;;1.88;;
55312;SDS011;46892;45.668;11.756;2023-07-22T12:02:18;4.90;;;2.25;;
55312;SDS011;46892;45.668;11.756;2023-07-22T12:04:56;6.05;;;1.98;;
55312;SDS011;46892;45.668;11.756;2023-07-22T12:07:26;4.00;;;1.90;;
55312;SDS011;46892;45.668;11.756;2023-07-22T12:10:00;3.45;;;1.70;;
55312;SDS011;46892;45.668;11.756;2023-07-22T12:15:13;5.05;;;2.67;;
55312;SDS011;46892;45.668;11.756;2023-07-22T12:20:24;4.95;;;2.63;;
55312;SDS011;46892;45.668;11.756;2023-07-22T12:22:51;6.60;;;3.03;;
55312;SDS011;46892;45.668;11.756;2023-07-22T12:25:17;5.70;;;2.92;;
55312;SDS011;46892;45.668;11.756;2023-07-22T12:27:43;4.55;;;2.67;;
55312;SDS011;46892;45.668;11.756;2023-07-22T12:30:09;6.88;;;3.35;;
55312;SDS011;46892;45.668;11.756;2023-07-22T12:32:35;6.40;;;3.22;;
55312;SDS011;46892;45.668;11.756;2023-07-22T12:35:02;5.35;;;3.08;;
55312;SDS011;46892;45.668;11.756;2023-07-22T12:37:28;5.13;;;2.50;;
55312;SDS011;46892;45.668;11.756;2023-07-22T12:39:55;3.45;;;2.03;;
55312;SDS011;46892;45.668;11.756;2023-07-22T12:42:21;3.47;;;2.00;;
55312;SDS011;46892;45.668;11.756;2023-07-22T12:44:47;3.65;;;2.20;;
55312;SDS011;46892;45.668;11.756;2023-07-22T12:47:13;3.78;;;2.05;;
55312;SDS011;46892;45.668;11.756;2023-07-22T12:49:38;4.63;;;2.60;;
55312;SDS011;46892;45.668;11.756;2023-07-22T12:52:04;3.78;;;2.28;;
55312;SDS011;46892;45.668;11.756;2023-07-22T12:54:34;5.72;;;2.42;;
55312;SDS011;46892;45.668;11.756;2023-07-22T12:57:00;4.75;;;2.30;;
55312;SDS011;46892;45.668;11.756;2023-07-22T12:59:26;6.35;;;2.17;;
55312;SDS011;46892;45.668;11.756;2023-07-22T13:01:52;3.20;;;2.00;;
55312;SDS011;46892;45.668;11.756;2023-07-22T13:04:18;4.15;;;2.13;;
55312;SDS011;46892;45.668;11.756;2023-07-22T13:06:44;3.50;;;2.10;;
55312;SDS011;46892;45.668;11.756;2023-07-22T13:09:10;3.97;;;2.00;;
55312;SDS011;46892;45.668;11.756;2023-07-22T13:11:36;3.63;;;2.15;;
55312;SDS011;46892;45.668;11.756;2023-07-22T13:14:02;3.40;;;1.98;;
55312;SDS011;46892;45.668;11.756;2023-07-22T13:16:28;3.15;;;2.15;;
55312;SDS011;46892;45.668;11.756;2023-07-22T13:18:54;3.38;;;1.80;;
55312;SDS011;46892;45.668;11.756;2023-07-22T13:21:20;3.15;;;2.00;;
55312;SDS011;46892;45.668;11.756;2023-07-22T13:23:45;3.13;;;2.17;;
55312;SDS011;46892;45.668;11.756;2023-07-22T13:26:11;5.80;;;2.42;;
55312;SDS011;46892;45.668;11.756;2023-07-22T13:28:37;5.18;;;2.28;;
55312;SDS011;46892;45.668;11.756;2023-07-22T13:31:03;3.90;;;2.33;;
55312;SDS011;46892;45.668;11.756;2023-07-22T13:33:28;4.40;;;2.15;;
55312;SDS011;46892;45.668;11.756;2023-07-22T13:35:54;3.90;;;2.05;;
55312;SDS011;46892;45.668;11.756;2023-07-22T13:38:20;3.33;;;1.88;;
55312;SDS011;46892;45.668;11.756;2023-07-22T13:40:46;4.55;;;2.05;;
55312;SDS011;46892;45.668;11.756;2023-07-22T13:43:11;5.75;;;2.65;;
55312;SDS011;46892;45.668;11.756;2023-07-22T13:45:37;4.00;;;1.98;;
55312;SDS011;46892;45.668;11.756;2023-07-22T13:48:03;3.72;;;2.28;;
55312;SDS011;46892;45.668;11.756;2023-07-22T13:50:29;2.72;;;1.80;;
55312;SDS011;46892;45.668;11.756;2023-07-22T13:52:55;4.15;;;1.92;;
55312;SDS011;46892;45.668;11.756;2023-07-22T13:55:21;3.33;;;1.95;;
55312;SDS011;46892;45.668;11.756;2023-07-22T13:57:47;3.42;;;2.00;;
55312;SDS011;46892;45.668;11.756;2023-07-22T14:00:13;4.53;;;2.00;;
55312;SDS011;46892;45.668;11.756;2023-07-22T14:02:39;3.72;;;2.08;;
55312;SDS011;46892;45.668;11.756;2023-07-22T14:05:05;3.63;;;2.08;;
55312;SDS011;46892;45.668;11.756;2023-07-22T14:07:32;3.40;;;2.20;;
55312;SDS011;46892;45.668;11.756;2023-07-22T14:09:58;5.35;;;2.28;;
55312;SDS011;46892;45.668;11.756;2023-07-22T14:12:24;3.33;;;2.05;;
55312;SDS011;46892;45.668;11.756;2023-07-22T14:14:49;2.92;;;1.98;;
55312;SDS011;46892;45.668;11.756;2023-07-22T14:17:15;2.70;;;1.90;;
55312;SDS011;46892;45.668;11.756;2023-07-22T14:19:41;3.33;;;2.05;;
55312;SDS011;46892;45.668;11.756;2023-07-22T14:22:07;2.88;;;1.73;;
55312;SDS011;46892;45.668;11.756;2023-07-22T14:24:33;5.32;;;2.42;;
55312;SDS011;46892;45.668;11.756;2023-07-22T14:26:59;2.90;;;1.95;;
55312;SDS011;46892;45.668;11.756;2023-07-22T14:29:25;3.28;;;2.00;;
55312;SDS011;46892;45.668;11.756;2023-07-22T14:31:51;4.78;;;1.85;;
55312;SDS011;46892;45.668;11.756;2023-07-22T14:34:17;3.33;;;1.90;;
55312;SDS011;46892;45.668;11.756;2023-07-22T14:36:43;3.45;;;2.30;;
55312;SDS011;46892;45.668;11.756;2023-07-22T14:39:09;3.85;;;2.00;;
55312;SDS011;46892;45.668;11.756;2023-07-22T14:41:35;4.28;;;2.13;;
55312;SDS011;46892;45.668;11.756;2023-07-22T14:44:00;3.33;;;1.88;;
55312;SDS011;46892;45.668;11.756;2023-07-22T14:46:26;2.75;;;1.70;;
55312;SDS011;46892;45.668;11.756;2023-07-22T14:48:52;3.15;;;2.00;;
55312;SDS011;46892;45.668;11.756;2023-07-22T14:51:18;4.10;;;1.98;;
55312;SDS011;46892;45.668;11.756;2023-07-22T14:53:44;2.83;;;1.88;;
55312;SDS011;46892;45.668;11.756;2023-07-22T14:56:09;3.38;;;2.00;;
55312;SDS011;46892;45.668;11.756;2023-07-22T14:58:35;4.32;;;2.10;;